• Join FlightAware (Why Join?)
  • Login
  • US Flag 
09:21PM EDT


 

Airport Tracker/Info


-or-


 

Live Flight TrackerFlight Track Log ✈ LOF3416 ✈ 09-Jul-2013 ✈ KSGF - KORD

Flight Track Log - Related Links

Times and Time Zones

All times are in EDT time to prevent confusion due to time zone crossing. See the LOF3416 flight status page for this flight to view local times or setup timezone preferences in your user account.

Time Position Orientation Groundspeed Altitude Reporting Facility
EDT Latitude Longitude Course Direction KTS MPH feet Rate Location/Type
12:29AM 37.2092 -93.3789 53° Northeast 184 212 3,100  Level Kansas City Center
12:30AM 37.2517 -93.3069 53° Northeast 241 277 5,500 2,280 Climbing Kansas City Center
12:31AM 37.3117 -93.2558 34° Northeast 252 290 7,800 2,160 Climbing Kansas City Center
12:32AM 37.3744 -93.2008 35° Northeast 263 303 9,900 1,680 Climbing Kansas City Center
12:33AM 37.4414 -93.1436 34° Northeast 281 323 11,300 1,140 Climbing Kansas City Center
12:34AM 37.5161 -93.0769 35° Northeast 314 361 12,300 840 Climbing Kansas City Center
12:35AM 37.5969 -93.0050 35° Northeast 335 386 13,100 1,020 Climbing Kansas City Center
12:36AM 37.6800 -92.9322 35° Northeast 353 406 14,400 1,080 Climbing Kansas City Center
12:37AM 37.7675 -92.8547 35° Northeast 373 429 15,400 960 Climbing Kansas City Center
12:38AM 37.8553 -92.7772 35° Northeast 380 437 16,400 1,020 Climbing Kansas City Center
12:39AM 37.9464 -92.6958 35° Northeast 385 443 17,500 960 Climbing Kansas City Center
12:40AM 38.0347 -92.6164 35° Northeast 388 447 18,400 900 Climbing Kansas City Center
12:41AM 38.1242 -92.5353 35° Northeast 392 451 19,400 960 Climbing Kansas City Center
12:42AM 38.2192 -92.4533 34° Northeast 396 456 20,400 1,020 Climbing Kansas City Center
12:43AM 38.3128 -92.3675 36° Northeast 407 468 21,500 1,020 Climbing Kansas City Center
12:44AM 38.4072 -92.2817 35° Northeast 413 475 22,500 960 Climbing Kansas City Center
12:45AM 38.5019 -92.1967 35° Northeast 414 476 23,500 960 Climbing Kansas City Center
12:46AM 38.5958 -92.1103 36° Northeast 415 478 24,500 960 Climbing Kansas City Center
12:47AM 38.6914 -92.0244 35° Northeast 417 480 25,500 960 Climbing Kansas City Center
12:48AM 38.7858 -91.9369 36° Northeast 417 480 26,500 720 Climbing Kansas City Center
12:49AM 38.8819 -91.8500 35° Northeast 420 483 27,000 240 Climbing Kansas City Center
12:50AM 38.9806 -91.7589 36° Northeast 431 496 27,000  Level Kansas City Center
12:51AM 39.0786 -91.6697 35° Northeast 445 512 27,000  Level Kansas City Center
12:52AM 39.1839 -91.5722 36° Northeast 461 531 27,000  Level Kansas City Center
12:53AM 39.3128 -91.4539 35° Northeast 470 541 27,000  Level Kansas City Center
12:54AM 39.4203 -91.3528 36° Northeast 474 545 27,000  Level Kansas City Center
12:55AM 39.5258 -91.2539 36° Northeast 472 543 27,000  Level Kansas City Center
12:56AM 39.6322 -91.1528 36° Northeast 472 543 27,000  Level Kansas City Center
12:57AM 39.7392 -91.0522 36° Northeast 473 544 27,000  Level Kansas City Center
12:58AM 39.8453 -90.9439 38° Northeast 473 544 27,000  Level Kansas City Center
12:59AM 39.9492 -90.8392 38° Northeast 472 543 27,000  Level Kansas City Center
01:00AM 40.0444 -90.7222 43° Northeast 471 542 27,000  Level Kansas City Center
01:01AM 40.1344 -90.6017 46° Northeast 466 536 27,000  Level Kansas City Center
01:02AM 40.2278 -90.4783 45° Northeast 473 544 27,000  Level Kansas City Center
01:03AM 40.3200 -90.3539 46° Northeast 476 548 27,000  Level Kansas City Center
01:04AM 40.4142 -90.2272 46° Northeast 481 554 27,000  Level Kansas City Center
01:05AM 40.5078 -90.1011 46° Northeast 483 556 27,000  Level Kansas City Center
01:07AM 40.6367 -89.9261 46° Northeast 483 556 27,000  Level Chicago Center
01:08AM 40.7292 -89.7947 47° Northeast 487 560 27,000  Level Chicago Center
01:09AM 40.8250 -89.6675 45° Northeast 490 564 27,000  Level Chicago Center
01:10AM 40.9144 -89.5447 46° Northeast 495 570 27,000 -180 Level Chicago Center
01:11AM 41.0089 -89.4153 46° Northeast 491 565 26,700 -1,620 Descending Chicago Center
01:12AM 41.1008 -89.2886 46° Northeast 482 555 23,800 -3,000 Descending Chicago Center
01:13AM 41.1867 -89.1669 47° Northeast 439 505 20,700 -3,180 Descending Chicago Center
01:14AM 41.2672 -89.0553 46° Northeast 420 483 17,500 -3,180 Descending Chicago Center
01:15AM 41.3442 -88.9467 47° Northeast 409 471 14,400 -2,760 Descending Chicago Center
01:16AM 41.4161 -88.8444 47° Northeast 381 438 12,000 -1,740 Descending Chicago Center
01:17AM 41.4789 -88.7528 48° Northeast 340 391 11,000 -540 Descending Chicago Center
01:18AM 41.5358 -88.6481 54° Northeast 356 410 11,000  Level Chicago Center
01:19AM 41.5858 -88.5231 62° Northeast 384 442 11,000  Level Chicago Center
01:20AM 41.6361 -88.4008 61° Northeast 377 434 11,000 -480 Level Chicago Center
01:21AM 41.6483 -88.2839 82° East 319 367 10,100 -1,260 Descending Chicago Center
01:22AM 41.6631 -88.1792 79° East 291 335 8,500 -1,500 Descending Chicago Center
01:23AM 41.6747 -88.0772 81° East 279 321 7,100 -780 Descending Chicago Center
01:24AM 41.6869 -87.9758 81° East 277 319 7,000 -600 Descending Chicago Center
01:25AM 41.7008 -87.8714 80° East 285 328 5,900 -1,320 Descending Chicago Center
01:26AM 41.7400 -87.7872 58° Northeast 282 325 4,400 -900 Descending Chicago Center
01:27AM 41.7933 -87.7225 42° Northeast 268 308 4,100 -180 Descending Chicago Center
01:28AM 41.8494 -87.7433 345° North 244 281 4,100 -720 Level Chicago Center
01:29AM 41.9008 -87.8033 319° Northwest 220 253 2,700 -1,080 Descending Chicago Center
01:30AM 41.9303 -87.8369 320° Northwest 174 200 2,000 -720 Descending Chicago Center
01:31AM 41.9547 -87.8628 322° Northwest 134 154 1,300 -420 Descending Chicago Center
01:32AM 41.9797 -87.8897 321° Northwest 130 150 1,200 -120 Descending Chicago Center
01:34AM 41.9667 -87.9000 37° Northeast  Level FlightAware Approximate